Tiempo atmosférico en la estación meteorológica de Bello, Teruel (1006 m.)



Fecha
DESCASC
Temp. máxima en grados centígrados (hora)
DESCASC
Temp. mínima en grados centígrados (hora)
DESCASC
Temp. media en grados centígrados
DESCASC
Racha de viento máxima en m/sg (hora)
DESCASC
Velocidad máxima media en intervalos de 10 minutos(hora)
DESCASC
Precipitaciones diarias en mm
DESCASC
Precipitaciones de 00:00 a 06:00 en mm
DESCASC
Precipitaciones de 06:00 a 12:00 en mm
DESCASC
Precipitaciones de 12:00 a 18:00 en mm
DESCASC
Precipitaciones de 18:00 a 24:00 en mm
DESCASC
20-09-2018 27.3 (15:40) 11.6 (08:00) 19.4 8.33 (17:50) 5.28 (17:50) 0 0 0 0 0
19-09-2018 27.1 (16:20) 10.7 (07:00) 18.9 5 (18:00) 2.78 (17:30) -- -- -- 0 0
18-09-2018 25.7 (16:10) 10.9 (08:00) 18.3 12.22 (19:20) 7.78 (19:20) -- -- -- -- --
17-09-2018 27.2 (15:00) 12 (08:00) 19.6 14.17 (23:10) 10 (23:20) -- -- -- -- --
16-09-2018 27.6 (18:20) 10.9 (00:00) 19.3 5.83 (18:50) 3.89 (19:20) 0 0 0 0 0
15-09-2018 26.1 (16:50) 12.1 (00:00) 19.1 8.89 (18:10) 6.67 (19:10) 0 0 0 0 0
14-09-2018 27.6 (17:50) 9.9 (00:00) 18.8 9.44 (18:00) 6.39 (19:00) 0 0 0 0 0
13-09-2018 26.3 (18:20) 10.9 (00:00) 18.6 6.94 (15:00) 4.17 (19:00) 0 0 0 0 0
12-09-2018 24.9 (17:30) 12.8 (00:00) 18.8 11.11 (06:10) 6.11 (06:20) 0 0 0 0 0
11-09-2018 20 (17:20) 10.9 (00:00) 15.4 9.17 (13:30) 6.11 (13:30) 0 0 0 0 0
10-09-2018 -- (--) -- (--) -- -- (--) -- (--) -- -- -- 0 0
09-09-2018 -- (--) -- (--) -- -- (--) -- (--) -- 0 0 -- --
08-09-2018 24.9 (16:40) 12.3 (00:00) 18.6 12.5 (13:30) 9.17 (13:10) 0 0 0 0 0
07-09-2018 24.2 (15:30) 9.7 (00:00) 17 9.72 (18:30) 6.11 (17:40) 0 0 0 0 0
06-09-2018 21.5 (14:00) 12.4 (00:00) 16.9 10.83 (16:20) 5.83 (16:20) 6.4 0 0 6.2 0.2
05-09-2018 27.2 (17:20) 13.5 (00:00) 20.4 12.78 (22:20) 7.5 (22:20) 0 0 0 0 0
04-09-2018 27.6 (15:00) 11.2 (00:00) 19.4 11.39 (15:40) 8.33 (15:50) 1.4 0 0 1.4 0
03-09-2018 28.8 (16:20) 17 (00:00) 22.9 16.11 (22:00) 11.94 (22:00) 1.4 0.4 1 0 0
02-09-2018 30.3 (16:40) 12.8 (00:00) 21.5 6.67 (17:10) 4.44 (19:30) 0 0 0 0 0
01-09-2018 28.5 (16:40) 11.3 (00:00) 19.9 7.78 (17:10) 5 (17:10) 0 0 0 0 0
31-08-2018 26.7 (16:20) 13.4 (00:00) 20.1 8.33 (16:20) 5.56 (17:10) 0 0 0 0 0
30-08-2018 27.7 (15:10) 12.4 (00:00) 20.1 11.11 (16:40) 6.67 (16:10) 0.2 0 0 0.2 0
29-08-2018 26.8 (17:10) 13.4 (00:00) 20.1 13.61 (01:00) 10.28 (01:00) 0 0 0 0 0
28-08-2018 32.2 (17:00) 17.1 (00:00) 24.7 20.28 (20:30) 13.61 (20:30) 4 0 0 0 4
27-08-2018 32.7 (18:00) 11.3 (00:00) 22 10.83 (19:30) 5.56 (19:40) 0 0 0 0 0
26-08-2018 29.3 (17:30) 8.3 (00:00) 18.8 9.44 (17:00) 5 (17:30) 0 0 0 0 0
25-08-2018 25.4 (15:40) 9 (00:00) 17.2 10.56 (18:30) 7.22 (17:10) 0 0 0 0 0
24-08-2018 26.7 (17:20) 10.5 (00:00) 18.6 10.56 (19:10) 7.5 (19:00) 0 0 0 0 0

Gráficas

Temp. máximas Temp. mínimas Temp. medias Precipitaciones Rachas de viento máximas Velocidades máximas media en intervalos de 10 minutos

Datos horarios

Fecha y hora oficial Temperatura (ºC) Velocidad del viento (km/h) Dirección del viento Racha (km/h) Dirección de racha Precipitación (mm) Presión (hPa) Tendencia (hPa) Humedad (%)
2018-09-22 23:00:00 18.5 3 Sudoeste 21 Este 0 -- -- 59
2018-09-22 22:00:00 19.6 6 Este 13 Este 0 -- -- 54
2018-09-22 21:00:00 21.3 5 Este 18 Nordeste 0 -- -- 50
2018-09-22 20:00:00 24.2 13 Nordeste 21 Nordeste 0 -- -- 42
2018-09-22 19:00:00 28 9 Norte 17 Norte 0 -- -- 31
2018-09-22 18:00:00 28.6 10 Norte 19 Noroeste 0 -- -- 34
2018-09-22 17:00:00 28.6 9 Noroeste 20 Noroeste 0 -- -- 35
2018-09-22 16:00:00 28.6 5 Norte 22 Norte 0 -- -- 35
2018-09-22 15:00:00 27.9 11 Norte 23 Norte 0 -- -- 38
2018-09-22 14:00:00 27.1 9 Norte 18 Noroeste 0 -- -- 39
2018-09-22 13:00:00 25.7 7 Nordeste 15 Nordeste 0 -- -- 46
2018-09-22 12:00:00 22.7 5 Nordeste 9 Nordeste 0 -- -- 59
2018-09-22 11:00:00 19.2 4 Sudeste 6 Sur 0 -- -- 68
2018-09-22 10:00:00 16.3 3 Nordeste 6 Este 0 -- -- 76
2018-09-22 09:00:00 12.6 0 Calma 6 Oeste 0 -- -- 88
2018-09-22 08:00:00 11.7 0 Calma 6 Oeste 0 -- -- 89
2018-09-22 07:00:00 11.8 3 Oeste 9 Sudoeste 0 -- -- 88
2018-09-22 06:00:00 12 3 Oeste 6 Oeste 0 -- -- 88
2018-09-22 05:00:00 12.7 3 Sudoeste 5 Sur 0 -- -- 84
2018-09-22 04:00:00 13.4 3 Sudeste 7 Sudeste 0 -- -- 80
2018-09-22 03:00:00 14.1 0 Calma 10 Este 0 -- -- 76
2018-09-22 02:00:00 15.4 4 Sudeste 12 Este 0 -- -- 69
2018-09-22 01:00:00 16.5 5 Sudeste 18 Este 0 -- -- 65
2018-09-22 00:00:00 17.2 10 Sudeste 25 Nordeste 0 -- -- 64
2018-09-21 23:00:00 18.5 15 Este 30 Este 0 -- -- 60
2018-09-21 22:00:00 19.2 6 Este 27 Nordeste 0 -- -- 59
2018-09-21 21:00:00 20.6 19 Este 28 Este 0 -- -- 58
2018-09-21 20:00:00 23.1 17 Nordeste 24 Este 0 -- -- 50
2018-09-21 19:00:00 26.3 11 Norte 21 Noroeste 0 -- -- 37
2018-09-21 18:00:00 26.8 11 Norte 22 Norte 0 -- -- 39
2018-09-21 17:00:00 27.8 7 Norte 20 Norte 0 -- -- 36
2018-09-21 16:00:00 27.4 10 Norte 21 Nordeste 0 -- -- 37
2018-09-21 15:00:00 27.4 7 Norte 18 Noroeste 0 -- -- 39
2018-09-21 14:00:00 26.5 7 Norte 18 Norte 0 -- -- 38
2018-09-21 13:00:00 24.9 10 Norte 16 Noroeste 0 -- -- 40
2018-09-21 12:00:00 23 9 Noroeste 16 Noroeste 0 -- -- 51
2018-09-21 11:00:00 20 3 Nordeste 5 Noroeste 0 -- -- 66
2018-09-21 10:00:00 16.7 2 Sur 4 Noroeste 0 -- -- 83
2018-09-21 09:00:00 13.1 0 Calma 5 Este 0 -- -- 93
2018-09-21 08:00:00 11.9 0 Calma 6 Sur 0 -- -- 93
2018-09-21 07:00:00 12 2 Sudeste 10 Oeste 0 -- -- 91
2018-09-21 06:00:00 12.4 6 Sudoeste 9 Sudoeste 0 -- -- 90
2018-09-21 05:00:00 12.5 5 Oeste 6 Oeste 0 -- -- 89
2018-09-21 04:00:00 13.6 4 Noroeste 6 Noroeste 0 -- -- 86
2018-09-21 03:00:00 14.6 3 Oeste 10 Sudoeste 0 -- -- 82
2018-09-21 02:00:00 15.6 7 Sudoeste 10 Norte 0 -- -- 79
2018-09-21 01:00:00 16.8 4 Oeste 13 Sur 0 -- -- 76
2018-09-21 00:00:00 17.7 9 Sudoeste 17 Sur 0 -- -- 74
2018-09-20 23:00:00 18.2 8 Sudoeste 13 Sudoeste 0 -- -- 71
2018-09-20 22:00:00 18.7 2 Sudoeste 16 Noroeste 0 -- -- 71
2018-09-20 21:00:00 21.2 13 Noroeste 18 Noroeste 0 -- -- 60
2018-09-20 20:00:00 22.2 0 Calma 10 Sudoeste 0 -- -- 62
2018-09-20 19:00:00 22.8 5 Sudoeste 24 Sudoeste 0 -- -- 56
2018-09-20 18:00:00 22.9 15 Sudoeste 30 Sudoeste 0 -- -- 54
2018-09-20 17:00:00 26.3 0 Calma 10 Noroeste 0 -- -- 43
2018-09-20 16:00:00 27.3 4 Norte 21 Sudeste 0 -- -- 39
2018-09-20 15:00:00 26.6 5 Sudeste 14 Sudeste 0 -- -- 44
2018-09-20 14:00:00 26.5 7 Este 12 Sudeste 0 -- -- 48
2018-09-20 13:00:00 24.9 4 Sudeste 9 Sudeste 0 -- -- 52
2018-09-20 12:00:00 22.8 3 Sudeste 8 Sudeste 0 -- -- 63
2018-09-20 11:00:00 19.2 3 Sudeste 5 Sur 0 -- -- 82
2018-09-20 10:00:00 16.4 3 Este 5 Nordeste 0 -- -- 90
2018-09-20 09:00:00 13 0 Calma 4 Sudoeste 0 -- -- 97
2018-09-20 08:00:00 11.6 2 Sudoeste 8 Oeste 0 -- -- 95
2018-09-20 07:00:00 12.3 4 Oeste 6 Oeste 0 -- -- 96
2018-09-20 06:00:00 12.8 0 Calma 7 Sudoeste 0 -- -- 95
2018-09-20 05:00:00 13.3 2 Noroeste 6 Sudoeste 0 -- -- 94
2018-09-20 04:00:00 13.8 2 Sudoeste 4 Sudeste 0 -- -- 93
2018-09-20 03:00:00 15.5 0 Calma 10 Norte 0 -- -- 90
2018-09-20 02:00:00 16 8 Norte 10 Norte 0 -- -- 90
2018-09-20 01:00:00 17.8 3 Sudeste 17 Sur 0 -- -- 82
2018-09-20 00:00:00 16.7 2 Sudeste 6 Sudeste 0 -- -- 81
2018-09-19 23:00:00 17.2 4 Sudoeste 8 Oeste 0 -- -- 81
2018-09-19 22:00:00 18.4 4 Sudoeste 6 Este 0 -- -- 80
2018-09-19 21:00:00 20 4 Este 10 Sur 0 -- -- 74
2018-09-19 20:00:00 22.9 9 Sur 11 Sudeste 0 -- -- 63
2018-09-19 19:00:00 25 10 Sudeste 17 Este 0 -- -- 51
2018-09-19 18:00:00 26.6 9 Sudeste 18 Este 0 -- -- 42
2018-09-19 17:00:00 26.6 9 Nordeste 16 Nordeste 0 -- -- 38
2018-09-19 16:00:00 -- -- -- -- -- -- -- -- --
2018-09-19 15:00:00 25.3 8 Este 13 Sudeste 0 -- -- 49
2018-09-19 14:00:00 24.2 5 Noroeste 10 Noroeste 0 -- -- 55
2018-09-19 13:00:00 22.6 3 Sur 10 Sur 0 -- -- 63
2018-09-19 12:00:00 20.6 4 Sudeste 10 Este 0 -- -- 75
2018-09-19 11:00:00 17.7 2 Nordeste 6 Este 0 -- -- 84
2018-09-19 10:00:00 15.2 3 Este 4 Este 0 -- -- 90
2018-09-19 09:00:00 12.4 3 Oeste 8 Oeste 0 -- -- 97
2018-09-19 08:00:00 10.7 3 Sudoeste 6 Oeste 0 -- -- 97
2018-09-19 07:00:00 10.7 4 Sur 7 Sudoeste 0 -- -- 96
2018-09-19 06:00:00 11.4 6 Oeste 8 Oeste 0 -- -- 97
2018-09-19 05:00:00 11.5 0 Calma 5 Noroeste 0 -- -- 96
2018-09-19 04:00:00 12.3 2 Norte 5 Noroeste 0 -- -- 96
2018-09-19 03:00:00 13.2 3 Norte 13 Noroeste 0 -- -- 96
2018-09-19 02:00:00 13.4 2 Sur 8 Sudoeste 0 -- -- 94
2018-09-19 01:00:00 13.9 4 Sudoeste 6 Sudoeste 0 -- -- 94
2018-09-19 00:00:00 14.8 2 Sudeste 8 Noroeste 0 -- -- 92
2018-09-18 23:00:00 15.4 7 Sudeste 14 Sudeste 0 -- -- 92
2018-09-18 22:00:00 16.3 6 Este 19 Sudoeste 0 -- -- 89
2018-09-18 21:00:00 16.6 17 Sudoeste 22 Sudoeste 0 -- -- 86
2018-09-18 20:00:00 17.3 13 Noroeste 44 Noroeste -- -- -- 79
2018-09-18 19:00:00 22.8 4 Sur 8 Oeste 0 -- -- 58
2018-09-18 18:00:00 24.3 3 Nordeste 15 Este 0 -- -- 47
2018-09-18 17:00:00 23.9 10 Nordeste 19 Norte 0 -- -- 52
2018-09-18 16:00:00 25.3 4 Norte 14 Noroeste 0 -- -- 50
2018-09-18 15:00:00 24.2 7 Oeste 15 Noroeste 0 -- -- 53
2018-09-18 14:00:00 23 5 Nordeste 14 Norte 0 -- -- 59
2018-09-18 13:00:00 22 6 Nordeste 13 Oeste 0 -- -- 65
2018-09-18 12:00:00 20.4 2 Nordeste 8 Norte 0 -- -- 70
2018-09-18 11:00:00 18.8 0 Calma 6 Este 0 -- -- 78
2018-09-18 10:00:00 15.7 0 Calma 6 Nordeste 0 -- -- 88
2018-09-18 09:00:00 13 2 Sudoeste 8 Oeste 0 -- -- 97
2018-09-18 08:00:00 10.9 3 Sur 9 Oeste 0 -- -- 96
2018-09-18 07:00:00 11.6 6 Sudoeste 9 Oeste 0 -- -- 96
2018-09-18 06:00:00 12.2 3 Oeste 6 Nordeste 0 -- -- 94
2018-09-18 05:00:00 12.9 3 Norte 11 Oeste 0 -- -- 93
2018-09-18 04:00:00 13.4 3 Nordeste 13 Sur 0 -- -- 92
2018-09-18 03:00:00 13.7 11 Sur 15 Sur 0 -- -- 92
2018-09-18 02:00:00 14.8 4 Sudeste 13 Este 0 -- -- 88
2018-09-18 01:00:00 16 6 Nordeste 24 Sudoeste 0 -- -- 84
2018-09-18 00:00:00 16.1 15 Sudoeste 51 Sudoeste 0 -- -- 84
2018-09-17 23:00:00 16.1 18 Sudoeste 41 Sudoeste 0 -- -- 85
2018-09-17 22:00:00 15.8 12 Sur 30 Sur 0 -- -- 88
2018-09-17 21:00:00 16 22 Sudeste 28 Sudeste 0 -- -- 87
2018-09-17 20:00:00 16.1 16 Sudoeste 35 Sur 0 -- -- 85
2018-09-17 19:00:00 16.7 25 Sudeste 44 Sudeste 0 -- -- 83
2018-09-17 18:00:00 18.8 21 Sudeste 37 Oeste 0 -- -- 82
2018-09-17 17:00:00 21 7 Noroeste 29 Sudoeste 0 -- -- 57
2018-09-17 16:00:00 23.4 24 Sudoeste 39 Sudoeste 0 -- -- 52
2018-09-17 15:00:00 27.2 13 Sudeste 25 Sur 0 -- -- 36
2018-09-17 14:00:00 26.3 10 Sur 20 Sudeste 0 -- -- 41
2018-09-17 13:00:00 25.4 8 Sudeste 18 Sudeste 0 -- -- 47
2018-09-17 12:00:00 23.3 7 Sur 14 Sudeste 0 -- -- 57
2018-09-17 11:00:00 21.2 7 Sudeste 10 Sudeste 0 -- -- 68
2018-09-17 10:00:00 17.5 2 Este 6 Norte 0 -- -- 83
2018-09-17 09:00:00 14.3 2 Noroeste 5 Oeste 0 -- -- 93
2018-09-17 08:00:00 12 4 Oeste 5 Oeste 0 -- -- 92
2018-09-17 07:00:00 12.7 4 Oeste 8 Noroeste 0 -- -- 92
2018-09-17 06:00:00 14.9 4 Norte 21 Sudoeste 0 -- -- 87
2018-09-17 05:00:00 15.3 4 Sur 18 Sur 0 -- -- 88
2018-09-17 04:00:00 15.8 5 Oeste 15 Sur 0 -- -- 90
2018-09-17 03:00:00 16.8 12 Sur 17 Sur 0 -- -- 87
2018-09-17 02:00:00 16.7 5 Sudeste 19 Sudeste 0 -- -- 84
2018-09-17 01:00:00 18.3 5 Sur 26 Sudoeste 0 -- -- 76
2018-09-17 00:00:00 17.3 4 Este 14 Sudeste 0 -- -- 65
2018-09-16 23:00:00 18.2 12 Sur 17 Sur 0 -- -- 60
2018-09-16 22:00:00 19.1 11 Sudeste 18 Sudeste 0 -- -- 58
2018-09-16 21:00:00 20.8 10 Sudeste 17 Este 0 -- -- 55
2018-09-16 20:00:00 23.7 13 Este 20 Este 0 -- -- 45
2018-09-16 19:00:00 26.5 11 Nordeste 21 Norte 0 -- -- 35
2018-09-16 18:00:00 27.1 5 Nordeste 19 Nordeste 0 -- -- 35
2018-09-16 17:00:00 27.1 5 Norte 16 Este 0 -- -- 38
2018-09-16 16:00:00 26.7 7 Este 15 Nordeste 0 -- -- 36
2018-09-16 15:00:00 26.1 6 Norte 15 Norte 0 -- -- 41
2018-09-16 14:00:00 25 3 Norte 10 Oeste 0 -- -- 48
2018-09-16 13:00:00 23.1 5 Sur 10 Sudoeste 0 -- -- 53
2018-09-16 12:00:00 21.5 3 Sur 9 Sudoeste 0 -- -- 61
2018-09-16 11:00:00 18.8 3 Sudeste 9 Sudeste 0 -- -- 73
2018-09-16 10:00:00 15.9 3 Norte 6 Norte 0 -- -- 84
2018-09-16 09:00:00 12.5 2 Oeste 5 Oeste 0 -- -- 94
2018-09-16 08:00:00 10.9 2 Oeste 5 Noroeste 0 -- -- 93
2018-09-16 07:00:00 11.7 3 Noroeste 6 Norte 0 -- -- 93
2018-09-16 06:00:00 11.8 2 Sudoeste 8 Sudeste 0 -- -- 93
2018-09-16 05:00:00 12.5 4 Noroeste 7 Oeste 0 -- -- 91
2018-09-16 04:00:00 12.9 4 Oeste 10 Oeste 0 -- -- 91
2018-09-16 03:00:00 13.7 5 Noroeste 7 Noroeste 0 -- -- 90
2018-09-16 02:00:00 14.5 4 Norte 10 Sur 0 -- -- 88
2018-09-16 01:00:00 15.5 5 Sudoeste 9 Sur 0 -- -- 84
2018-09-16 00:00:00 16.6 9 Sur 19 Sur 0 -- -- 79
2018-09-15 23:00:00 17 17 Sur 21 Sur 0 -- -- 81
2018-09-15 22:00:00 18.2 15 Sur 26 Sur 0 -- -- 74
2018-09-15 21:00:00 19.3 19 Sur 27 Sur 0 -- -- 72
2018-09-15 20:00:00 21.3 13 Sur 30 Sudeste 0 -- -- 60
2018-09-15 19:00:00 23.9 23 Sudeste 32 Este 0 -- -- 50
2018-09-15 18:00:00 25.1 17 Este 27 Este 0 -- -- 47
2018-09-15 17:00:00 25.8 15 Nordeste 27 Nordeste 0 -- -- 43
2018-09-15 16:00:00 25.6 10 Nordeste 17 Nordeste 0 -- -- 44
2018-09-15 15:00:00 25.7 4 Norte 17 Sur 0 -- -- 42
2018-09-15 14:00:00 24.7 6 Sudeste 15 Sur 0 -- -- 49
2018-09-15 13:00:00 23.4 8 Sudoeste 16 Sudeste 0 -- -- 54
2018-09-15 12:00:00 21.7 9 Sur 15 Sur 0 -- -- 64
2018-09-15 11:00:00 19.2 5 Sur 12 Sur 0 -- -- 72
2018-09-15 10:00:00 16.1 4 Este 8 Nordeste 0 -- -- 84
2018-09-15 09:00:00 13.2 3 Este 7 Oeste 0 -- -- 94
2018-09-15 08:00:00 12.2 6 Sudoeste 11 Sudoeste 0 -- -- 94
2018-09-15 07:00:00 12.2 0 Calma 5 Sudeste 0 -- -- 92
2018-09-15 06:00:00 12.3 4 Sur 6 Oeste 0 -- -- 92
2018-09-15 05:00:00 12.7 7 Oeste 11 Oeste 0 -- -- 91
2018-09-15 04:00:00 13.9 4 Este 12 Este 0 -- -- 86
2018-09-15 03:00:00 14.5 5 Sudeste 18 Este 0 -- -- 85
2018-09-15 02:00:00 15.2 7 Sudeste 13 Este 0 -- -- 83
2018-09-15 01:00:00 15.8 6 Este 17 Este 0 -- -- 80
2018-09-15 00:00:00 17.1 6 Este 16 Nordeste 0 -- -- 72
2018-09-14 23:00:00 17.1 8 Nordeste 15 Nordeste 0 -- -- 71
2018-09-14 22:00:00 18.4 9 Sur 11 Sur 0 -- -- 68
2018-09-14 21:00:00 20.1 9 Sudeste 19 Este 0 -- -- 64
2018-09-14 20:00:00 22.8 14 Este 29 Este 0 -- -- 52
2018-09-14 19:00:00 24.6 23 Este 33 Este 0 -- -- 46
2018-09-14 18:00:00 26.9 22 Nordeste 34 Nordeste 0 -- -- 41
2018-09-14 17:00:00 27.5 7 Nordeste 18 Nordeste 0 -- -- 35
2018-09-14 16:00:00 27 10 Nordeste 19 Nordeste 0 -- -- 39
2018-09-14 15:00:00 26 10 Nordeste 19 Este 0 -- -- 41
2018-09-14 14:00:00 24.6 6 Norte 14 Nordeste 0 -- -- 49
2018-09-14 13:00:00 22.2 3 Este 8 Nordeste 0 -- -- 64
2018-09-14 12:00:00 18.7 3 Nordeste 7 Nordeste 0 -- -- 85
2018-09-14 11:00:00 15.3 3 Sudeste 6 Oeste 0 -- -- 98
2018-09-14 10:00:00 13.9 2 Nordeste 6 Norte 0 -- -- 98
2018-09-14 09:00:00 11.3 2 Norte 3 Norte 0 -- -- 97
2018-09-14 08:00:00 10 2 Este 6 Noroeste 0 -- -- 95
2018-09-14 07:00:00 10.6 4 Noroeste 5 Noroeste 0 -- -- 95
2018-09-14 06:00:00 10.7 0 Calma 5 Oeste 0 -- -- 93
2018-09-14 05:00:00 11.6 5 Oeste 5 Oeste 0 -- -- 95
2018-09-14 04:00:00 11.9 0 Calma 6 Nordeste 0 -- -- 92
2018-09-14 03:00:00 13.3 4 Sudoeste 12 Sudoeste 0 -- -- 90
2018-09-14 02:00:00 13.8 6 Oeste 12 Sudoeste 0 -- -- 89
2018-09-14 01:00:00 14.7 6 Sudeste 16 Este 0 -- -- 85
2018-09-14 00:00:00 16 10 Este 15 Este 0 -- -- 80
2018-09-13 23:00:00 17.1 9 Este 21 Este 0 -- -- 76
2018-09-13 22:00:00 18 14 Este 20 Este 0 -- -- 73
2018-09-13 21:00:00 19.1 10 Este 20 Este 0 -- -- 72
2018-09-13 20:00:00 22.1 11 Este 23 Este 0 -- -- 64
2018-09-13 19:00:00 24.6 15 Nordeste 22 Nordeste 0 -- -- 50
2018-09-13 18:00:00 26.2 10 Norte 22 Norte 0 -- -- 35
2018-09-13 17:00:00 25.9 10 Nordeste 21 Norte 0 -- -- 39
2018-09-13 16:00:00 25.6 12 Norte 21 Este 0 -- -- 40
2018-09-13 15:00:00 25.3 9 Norte 25 Este 0 -- -- 52
2018-09-13 14:00:00 24.4 7 Este 13 Nordeste 0 -- -- 54
2018-09-13 13:00:00 22.8 5 Nordeste 10 Este 0 -- -- 55
2018-09-13 12:00:00 21.1 4 Oeste 9 Este 0 -- -- 65
2018-09-13 11:00:00 19.2 3 Nordeste 8 Nordeste 0 -- -- 72
2018-09-13 10:00:00 16.2 4 Este 8 Este 0 -- -- 85
2018-09-13 09:00:00 13.5 3 Sur 6 Noroeste 0 -- -- 97
2018-09-13 08:00:00 11 2 Noroeste 5 Oeste 0 -- -- 96
2018-09-13 07:00:00 11.2 3 Oeste 5 Sudoeste 0 -- -- 95
2018-09-13 06:00:00 11.8 0 Calma 8 Oeste 0 -- -- 94
2018-09-13 05:00:00 12.6 3 Noroeste 5 Noroeste 0 -- -- 93
2018-09-13 04:00:00 13.3 2 Oeste 5 Norte 0 -- -- 92
2018-09-13 03:00:00 13.4 5 Oeste 6 Oeste 0 -- -- 91
2018-09-13 02:00:00 14.6 2 Oeste 11 Oeste 0 -- -- 87
2018-09-13 01:00:00 15.3 7 Oeste 11 Oeste 0 -- -- 87
2018-09-13 00:00:00 15.5 5 Oeste 12 Sudoeste 0 -- -- 89
2018-09-12 23:00:00 16.2 3 Sur 6 Este 0 -- -- 86
2018-09-12 22:00:00 17.8 4 Este 12 Oeste 0 -- -- 79
2018-09-12 21:00:00 19.1 6 Sudoeste 26 Nordeste 0 -- -- 75
2018-09-12 20:00:00 21.2 10 Norte 25 Norte 0 -- -- 61
2018-09-12 19:00:00 23.5 9 Nordeste 23 Nordeste 0 -- -- 51
2018-09-12 18:00:00 24.8 13 Norte 26 Norte 0 -- -- 44
2018-09-12 17:00:00 24.8 13 Norte 28 Norte 0 -- -- 44
2018-09-12 16:00:00 24.4 12 Norte 30 Norte 0 -- -- 50
2018-09-12 15:00:00 23.4 10 Norte 23 Noroeste 0 -- -- 55
2018-09-12 14:00:00 22.7 17 Noroeste 25 Noroeste 0 -- -- 56
2018-09-12 13:00:00 21.3 11 Noroeste 20 Noroeste 0 -- -- 62
2018-09-12 12:00:00 19.2 6 Nordeste 13 Norte 0 -- -- 76
2018-09-12 11:00:00 17.6 5 Oeste 12 Oeste 0 -- -- 75
2018-09-12 10:00:00 16.2 0 Calma 8 Sudoeste 0 -- -- 87
2018-09-12 09:00:00 13.7 5 Oeste 10 Sudoeste 0 -- -- 96
2018-09-12 08:00:00 13.1 8 Sudoeste 23 Sudoeste 0 -- -- 95
2018-09-12 07:00:00 13 11 Norte 40 Noroeste 0 -- -- 95
2018-09-12 06:00:00 15.3 4 Oeste 19 Sur 0 -- -- 94
2018-09-12 05:00:00 15.3 6 Sur 22 Sudeste 0 -- -- 93
2018-09-12 04:00:00 15.4 8 Sur 18 Sur 0 -- -- 93
2018-09-12 03:00:00 15.1 4 Sudoeste 6 Sudoeste 0 -- -- 93
2018-09-12 02:00:00 15.6 5 Este 21 Sudoeste 0 -- -- 91
2018-09-12 01:00:00 16.3 15 Sur 26 Sur 0 -- -- 90
2018-09-12 00:00:00 16.4 10 Sur 19 Sudeste 0 -- -- 90
2018-09-11 23:00:00 16.5 12 Sudeste 17 Sudeste 0 -- -- 90
2018-09-11 22:00:00 16.5 4 Sudeste 24 Sudeste 0 -- -- 89
2018-09-11 21:00:00 17.7 9 Sur 12 Sur 0 -- -- 84
2018-09-11 20:00:00 18.9 5 Nordeste 13 Este 0 -- -- 79
2018-09-11 19:00:00 19.1 6 Este 22 Nordeste 0 -- -- 80
2018-09-11 18:00:00 19.5 11 Este 23 Este 0 -- -- 74
2018-09-11 17:00:00 19.6 17 Nordeste 30 Este 0 -- -- 75
2018-09-11 16:00:00 18.4 16 Nordeste 27 Este 0 -- -- 81
2018-09-11 15:00:00 17.7 13 Nordeste 24 Nordeste 0 -- -- 82
2018-09-11 14:00:00 17.2 13 Nordeste 33 Este 0 -- -- 88
2018-09-11 13:00:00 19.5 10 Este 20 Este 0 -- -- 71
2018-09-11 12:00:00 16.2 5 Norte 9 Nordeste 0 -- -- 94
2018-09-11 11:00:00 14.5 3 Noroeste 9 Norte 0 -- -- 98
2018-09-11 10:00:00 12.7 4 Noroeste 6 Sudoeste 0 -- -- 98
2018-09-11 09:00:00 11.8 3 Oeste 6 Sudoeste 0 -- -- 98
2018-09-11 08:00:00 10.9 0 Calma 5 Sur 0 -- -- 97
2018-09-11 07:00:00 11.3 4 Oeste 10 Oeste 0 -- -- 97
2018-09-11 06:00:00 11.1 6 Oeste 10 Sudoeste 0 -- -- 96
2018-09-11 05:00:00 11.4 4 Oeste 6 Sudoeste 0 -- -- 95
2018-09-11 04:00:00 12.3 3 Noroeste 6 Nordeste 0 -- -- 95
2018-09-11 03:00:00 12.9 3 Noroeste 8 Sur 0 -- -- 93
2018-09-11 02:00:00 13 3 Sur 6 Sur 0 -- -- 90
2018-09-11 01:00:00 14 0 Calma 8 Oeste 0 -- -- 88
2018-09-11 00:00:00 14.4 3 Sudoeste 10 Oeste 0 -- -- 88
2018-09-10 23:00:00 15.1 5 Sur 9 Este 0 -- -- 86
2018-09-10 22:00:00 16.6 4 Sur 14 Sur 0 -- -- 80
2018-09-10 21:00:00 18.3 10 Sudeste 18 Este 0 -- -- 75
2018-09-10 20:00:00 20.9 13 Este 19 Este 0 -- -- 62
2018-09-10 19:00:00 22.5 14 Nordeste 26 Este 0 -- -- 56
2018-09-10 18:00:00 21.5 14 Nordeste 30 Nordeste 0 -- -- 62
2018-09-10 17:00:00 21.7 16 Nordeste 24 Nordeste 0 -- -- 62
2018-09-10 16:00:00 22.6 6 Norte 18 Noroeste 0 -- -- 58
2018-09-10 15:00:00 20.5 10 Norte 19 Norte 0 -- -- 67
2018-09-10 14:00:00 19.2 5 Nordeste 18 Nordeste 0 -- -- 76
2018-09-10 13:00:00 17.8 12 Nordeste 21 Nordeste 0 -- -- 81
2018-09-10 12:00:00 16.7 13 Nordeste 18 Nordeste 0 -- -- 84
2018-09-10 11:00:00 16.3 13 Nordeste 23 Este 0 -- -- 85
2018-09-10 10:00:00 15.1 13 Nordeste 18 Nordeste 0 -- -- 91
2018-09-10 09:00:00 14.4 7 Este -- -- -- -- -- 94
2018-09-10 08:00:00 -- -- -- -- -- -- -- -- --
2018-09-10 07:00:00 -- -- -- -- -- -- -- -- --
2018-09-10 06:00:00 -- -- -- -- -- -- -- -- --
2018-09-10 05:00:00 -- -- -- -- -- -- -- -- --
2018-09-10 04:00:00 -- -- -- -- -- -- -- -- --
2018-09-10 03:00:00 -- -- -- -- -- -- -- -- --
2018-09-10 02:00:00 -- -- -- -- -- -- -- -- --
2018-09-10 01:00:00 -- -- -- -- -- -- -- -- --
2018-09-10 00:00:00 -- -- -- -- -- -- -- -- --
2018-09-09 23:00:00 -- -- -- -- -- -- -- -- --
2018-09-09 22:00:00 -- -- -- -- -- -- -- -- --
2018-09-09 21:00:00 -- -- -- -- -- -- -- -- --
2018-09-09 20:00:00 -- -- -- -- -- -- -- -- --
2018-09-09 19:00:00 -- -- -- -- -- -- -- -- --
2018-09-09 18:00:00 -- -- -- -- -- -- -- -- --
2018-09-09 17:00:00 24.5 9 Este 19 Nordeste 0 -- -- 47
2018-09-09 16:00:00 24.4 5 Sudeste 16 Este 0 -- -- 48
2018-09-09 15:00:00 24.2 11 Nordeste 18 Nordeste 0 -- -- 48
2018-09-09 14:00:00 22.2 7 Noroeste 13 Norte 0 -- -- 55
2018-09-09 13:00:00 22.1 4 Este 12 Norte 0 -- -- 58
2018-09-09 12:00:00 20.8 4 Norte 11 Norte 0 -- -- 64
2018-09-09 11:00:00 19.1 3 Norte 8 Nordeste 0 -- -- 73
2018-09-09 10:00:00 17 5 Norte 13 Noroeste 0 -- -- 81
2018-09-09 09:00:00 14.7 6 Noroeste 12 Norte 0 -- -- 89
2018-09-09 08:00:00 14.6 4 Norte 10 Noroeste 0 -- -- 94
2018-09-09 07:00:00 13.8 4 Sudoeste 10 Oeste 0 -- -- 92
2018-09-09 06:00:00 13.7 3 Sudoeste 7 Sudoeste 0 -- -- 91
2018-09-09 05:00:00 15.2 6 Sudoeste 10 Oeste 0 -- -- 89
2018-09-09 04:00:00 16.4 4 Norte 7 Noroeste 0 -- -- 88
2018-09-09 03:00:00 17 3 Sudeste 12 Norte 0 -- -- 84
2018-09-09 02:00:00 17.6 8 Noroeste 31 Sur 0 -- -- 79
2018-09-09 01:00:00 17.7 24 Sur 35 Sur 0 -- -- 83
2018-09-09 00:00:00 18.3 22 Sur 31 Sur 0 -- -- 79
2018-09-08 23:00:00 18.8 21 Sur 27 Sur 0 -- -- 72
2018-09-08 22:00:00 19.2 17 Sur 24 Sur 0 -- -- 69
2018-09-08 21:00:00 18.9 3 Este 6 Sur 0 -- -- 69
2018-09-08 20:00:00 19.5 4 Sur 10 Nordeste 0 -- -- 68
2018-09-08 19:00:00 19.7 10 Norte 31 Oeste 0 -- -- 64
2018-09-08 18:00:00 21.6 12 Norte 35 Sur 0 -- -- 56
2018-09-08 17:00:00 24 23 Sur 35 Sur 0 -- -- 49
2018-09-08 16:00:00 24.3 18 Sur 33 Sur 0 -- -- 47
2018-09-08 15:00:00 24 23 Sur 41 Sur 0 -- -- 49
2018-09-08 14:00:00 22.4 28 Sur 45 Sur 0 -- -- 53
2018-09-08 13:00:00 21.5 29 Sur 39 Sur 0 -- -- 63
2018-09-08 12:00:00 20.3 22 Sur 30 Sudeste 0 -- -- 68
2018-09-08 11:00:00 18.7 23 Sur 34 Sur 0 -- -- 71
2018-09-08 10:00:00 17.1 12 Sur 22 Sur 0 -- -- 83
2018-09-08 09:00:00 14.4 6 Sur 17 Sudoeste 0 -- -- 92
2018-09-08 08:00:00 12.7 9 Sur 14 Sudoeste 0 -- -- 97
2018-09-08 07:00:00 13 12 Sur 18 Sur 0 -- -- 96
2018-09-08 06:00:00 13 3 Sudeste 13 Sudoeste 0 -- -- 94
2018-09-08 05:00:00 13.6 9 Sudoeste 19 Sudeste 0 -- -- 93
2018-09-08 04:00:00 14.2 15 Sudeste 18 Sudeste 0 -- -- 92
2018-09-08 03:00:00 15.3 5 Sur 19 Sudeste 0 -- -- 90
2018-09-08 02:00:00 16.2 5 Sur 14 Sur 0 -- -- 87
2018-09-08 01:00:00 16.5 10 Sur 17 Sur 0 -- -- 87
2018-09-08 00:00:00 16.9 5 Sudeste 19 Sur 0 -- -- 83
2018-09-07 23:00:00 17.7 12 Sudeste 24 Sur 0 -- -- 81
2018-09-07 22:00:00 18.3 9 Sudeste 13 Sudeste 0 -- -- 74
2018-09-07 21:00:00 19 7 Este 16 Este 0 -- -- 68
2018-09-07 20:00:00 19.7 11 Este 23 Este 0 -- -- 64
2018-09-07 19:00:00 20.2 19 Este 35 Este 0 -- -- 62
2018-09-07 18:00:00 21.1 16 Sudeste 30 Sudeste 0 -- -- 57
2018-09-07 17:00:00 22.6 19 Este 25 Este 0 -- -- 52
2018-09-07 16:00:00 24 8 Este 29 Este 0 -- -- 47
2018-09-07 15:00:00 23.6 4 Sudeste 21 Este 0 -- -- 47
2018-09-07 14:00:00 22.1 6 Sudeste 17 Sudeste 0 -- -- 55
2018-09-07 13:00:00 20 6 Sudeste 15 Sudeste 0 -- -- 61
2018-09-07 12:00:00 18.4 6 Este 17 Este 0 -- -- 65
2018-09-07 11:00:00 16.4 8 Este 14 Este 0 -- -- 72
2018-09-07 10:00:00 14.7 7 Sudeste 11 Sudeste 0 -- -- 78
2018-09-07 09:00:00 12.6 6 Sur 11 Sur 0 -- -- 93
2018-09-07 08:00:00 9.7 2 Sudeste 7 Sudeste 0 -- -- 93
2018-09-07 07:00:00 10.3 8 Sur 11 Sudeste 0 -- -- 93
2018-09-07 06:00:00 11 10 Sur 13 Sur 0 -- -- 92
2018-09-07 05:00:00 11.3 9 Sudeste 14 Nordeste 0 -- -- 90
2018-09-07 04:00:00 11.7 4 Este 10 Este 0 -- -- 88
2018-09-07 03:00:00 11.8 8 Sudeste 13 Sudeste 0 -- -- 90
2018-09-07 02:00:00 12.8 4 Sudeste 11 Nordeste 0 -- -- 86
2018-09-07 01:00:00 13.1 3 Sudeste 13 Este 0 -- -- 87
2018-09-07 00:00:00 13.9 7 Este 15 Este 0 -- -- 85
2018-09-06 23:00:00 14.6 9 Este 20 Este 0 -- -- 85
2018-09-06 22:00:00 15.2 3 Sudeste 8 Noroeste 0 -- -- 85
2018-09-06 21:00:00 16.5 5 Norte 16 Nordeste 0 -- -- 80
2018-09-06 20:00:00 17 11 Nordeste 20 Nordeste 0.2 -- -- 77
2018-09-06 19:00:00 18 11 Nordeste 26 Este 0 -- -- 75
2018-09-06 18:00:00 18.6 15 Este 23 Este 0 -- -- 68
2018-09-06 17:00:00 17 3 Sur 39 Norte 6.2 -- -- 87
2018-09-06 16:00:00 20.9 18 Nordeste 27 Este 0 -- -- 58
2018-09-06 15:00:00 21 15 Este 22 Este 0 -- -- 57
2018-09-06 14:00:00 21.5 12 Nordeste 22 Nordeste 0 -- -- 56
2018-09-06 13:00:00 20.1 8 Nordeste 19 Nordeste 0 -- -- 64
2018-09-06 12:00:00 18.2 8 Este 21 Nordeste 0 -- -- 70
2018-09-06 11:00:00 16.1 10 Nordeste 17 Este 0 -- -- 81
2018-09-06 10:00:00 15 9 Este 18 Este 0 -- -- 85
2018-09-06 09:00:00 13.9 10 Este 16 Este 0 -- -- 92
2018-09-06 08:00:00 13.3 6 Este 16 Este 0 -- -- 93
2018-09-06 07:00:00 12.8 6 Este 14 Este 0 -- -- 94
2018-09-06 06:00:00 13.5 8 Nordeste 18 Nordeste 0 -- -- 93
2018-09-06 05:00:00 12.8 10 Nordeste 14 Nordeste 0 -- -- 94
2018-09-06 04:00:00 13 4 Este 6 Este 0 -- -- 89
2018-09-06 03:00:00 14 4 Este 13 Sudoeste 0 -- -- 86
2018-09-06 02:00:00 13.9 5 Sudoeste 9 Sur 0 -- -- 89
2018-09-06 01:00:00 14.1 3 Sudeste 11 Este 0 -- -- 85
2018-09-06 00:00:00 15 9 Nordeste 36 Este 0 -- -- 81
2018-09-05 23:00:00 15.5 22 Este 46 Nordeste 0 -- -- 84
2018-09-05 22:00:00 18.5 4 Noroeste 13 Norte 0 -- -- 51
2018-09-05 21:00:00 20.9 2 Sur 17 Sur 0 -- -- 53
2018-09-05 20:00:00 24.4 12 Sudoeste 27 Oeste 0 -- -- 49
2018-09-05 19:00:00 26 14 Oeste 32 Oeste 0 -- -- 32
2018-09-05 18:00:00 26.9 17 Oeste 32 Sudoeste 0 -- -- 31
2018-09-05 17:00:00 26.6 6 Norte 38 Oeste 0 -- -- 36
2018-09-05 16:00:00 25.4 23 Este 30 Nordeste 0 -- -- 50
2018-09-05 15:00:00 25.3 8 Norte 17 Sur 0 -- -- 44
2018-09-05 14:00:00 25 10 Sur 27 Sur 0 -- -- 47
2018-09-05 13:00:00 24.6 13 Sur 24 Sudeste 0 -- -- 52
2018-09-05 12:00:00 22.5 8 Este 17 Sudeste 0 -- -- 61
2018-09-05 11:00:00 21.2 6 Sudeste 11 Sur 0 -- -- 65
2018-09-05 10:00:00 18.8 3 Este 8 Sudoeste 0 -- -- 83
2018-09-05 09:00:00 15.8 7 Sudoeste 14 Sudoeste 0 -- -- 96
2018-09-05 08:00:00 15.8 6 Sur 21 Sur 0 -- -- 95
2018-09-05 07:00:00 14.7 6 Sur 13 Sur 0 -- -- 95
2018-09-05 06:00:00 13.5 6 Sudoeste 10 Sudeste 0 -- -- 93
2018-09-05 05:00:00 14.5 9 Este 21 Este 0 -- -- 92
2018-09-05 04:00:00 15.2 13 Este 25 Este 0 -- -- 90
2018-09-05 03:00:00 15.5 8 Este 23 Sudeste 0 -- -- 87
2018-09-05 02:00:00 16.1 10 Este 19 Sudeste 0 -- -- 93
2018-09-05 01:00:00 15.4 9 Nordeste 14 Norte 0 -- -- 88
2018-09-05 00:00:00 15.4 10 Sudoeste 14 Sudoeste 0 -- -- 84
2018-09-04 23:00:00 17.6 4 Sur 13 Sudeste 0 -- -- 76
2018-09-04 22:00:00 18.2 4 Nordeste 19 Sudeste 0 -- -- 72
2018-09-04 21:00:00 18.9 10 Sudeste 17 Este 0 -- -- 70
2018-09-04 20:00:00 21.1 9 Este 15 Este 0 -- -- 63
2018-09-04 19:00:00 21.1 16 Este 38 Este 0 -- -- 63
2018-09-04 18:00:00 22.8 18 Este 28 Este 0 -- -- 58
2018-09-04 17:00:00 22.7 7 Nordeste 33 Sur 1.4 -- -- 65
2018-09-04 16:00:00 26.3 25 Sur 41 Sur 0 -- -- 35
2018-09-04 15:00:00 27.6 11 Sudeste 22 Sur 0 -- -- 40
2018-09-04 14:00:00 26.5 5 Nordeste 15 Sudeste 0 -- -- 42
2018-09-04 13:00:00 25.3 5 Sudeste 13 Sudeste 0 -- -- 47
2018-09-04 12:00:00 23.5 6 Sudeste 11 Sur 0 -- -- 52
2018-09-04 11:00:00 21.2 3 Sudeste 10 Este 0 -- -- 64
2018-09-04 10:00:00 17 3 Oeste 6 Oeste 0 -- -- 76
2018-09-04 09:00:00 13.4 2 Oeste 5 Oeste 0 -- -- 87
2018-09-04 08:00:00 11.2 0 Calma 6 Nordeste 0 -- -- 89
2018-09-04 07:00:00 11.6 5 Sudoeste 8 Sudoeste 0 -- -- 90
2018-09-04 06:00:00 11.7 0 Calma 7 Oeste 0 -- -- 88
2018-09-04 05:00:00 12.5 8 Sudoeste 11 Sudoeste 0 -- -- 87
2018-09-04 04:00:00 13.1 0 Calma 10 Noroeste 0 -- -- 82
2018-09-04 03:00:00 13.9 4 Nordeste 8 Nordeste 0 -- -- 79
2018-09-04 02:00:00 15.4 5 Noroeste 10 Noroeste 0 -- -- 74
2018-09-04 01:00:00 16.9 6 Nordeste 12 Sur 0 -- -- 66
2018-09-04 00:00:00 17 0 Calma 22 Sudoeste 0 -- -- 68
2018-09-03 23:00:00 19 24 Sur 51 Sur 0 -- -- 59
2018-09-03 22:00:00 19.9 43 Sur 58 Sur 0 -- -- 57
2018-09-03 21:00:00 21.8 29 Sur 45 Sudoeste 0 -- -- 52
2018-09-03 20:00:00 22.6 20 Sudeste 44 Nordeste 0 -- -- 53
2018-09-03 19:00:00 26.2 27 Sur 37 Sudeste 0 -- -- 44
2018-09-03 18:00:00 28.2 21 Sur 32 Sudeste 0 -- -- 43
2018-09-03 17:00:00 28.1 24 Sur 34 Sur 0 -- -- 46
2018-09-03 16:00:00 28.6 26 Sur 37 Sur 0 -- -- 44
2018-09-03 15:00:00 26.6 22 Sur 29 Sur 0 -- -- 46
2018-09-03 14:00:00 25.9 21 Sur 26 Sur 0 -- -- 54
2018-09-03 13:00:00 23.9 17 Sur 25 Sur 0 -- -- 65
2018-09-03 12:00:00 20.9 16 Sudeste 21 Sudeste 0.4 -- -- 84
2018-09-03 11:00:00 22.4 9 Noroeste 20 Sudoeste 0 -- -- 68
2018-09-03 10:00:00 21.2 3 Sudoeste 15 Sudoeste 0 -- -- 75
2018-09-03 09:00:00 17.6 8 Sur 17 Sur 0 -- -- 90
2018-09-03 08:00:00 17.9 11 Sudoeste 22 Nordeste 0.4 -- -- 94
2018-09-03 07:00:00 18 3 Nordeste 26 Sudoeste 0.2 -- -- 93
2018-09-03 06:00:00 18.6 14 Sur 21 Sur 0 -- -- 90
2018-09-03 05:00:00 19 13 Sudeste 34 Noroeste 0.4 -- -- 87
2018-09-03 04:00:00 19.4 12 Sur 18 Sur 0 -- -- 87
2018-09-03 03:00:00 17.3 5 Nordeste 8 Nordeste 0 -- -- 72
2018-09-03 02:00:00 18.3 0 Calma 6 Este 0 -- -- 67
2018-09-03 01:00:00 19.8 0 Calma 8 Sur 0 -- -- 61
2018-09-03 00:00:00 21.4 3 Sudeste 17 Nordeste 0 -- -- 57
2018-09-02 23:00:00 22 9 Sudeste 14 Este 0 -- -- 57
2018-09-02 22:00:00 22.2 9 Este 14 Nordeste 0 -- -- 51
2018-09-02 21:00:00 24.9 12 Este 21 Este 0 -- -- 43
2018-09-02 20:00:00 26.9 14 Sudeste 22 Sudeste 0 -- -- 40
2018-09-02 19:00:00 27.8 10 Este 22 Nordeste 0 -- -- 36
2018-09-02 18:00:00 29.8 13 Nordeste 24 Nordeste 0 -- -- 31
2018-09-02 17:00:00 29.9 6 Sudeste 24 Nordeste 0 -- -- 33
2018-09-02 16:00:00 28.7 9 Este 16 Nordeste 0 -- -- 38
2018-09-02 15:00:00 29.5 9 Norte 23 Nordeste 0 -- -- 39
2018-09-02 14:00:00 27.7 6 Nordeste 17 Norte 0 -- -- 47
2018-09-02 13:00:00 26 5 Norte 12 Noroeste 0 -- -- 52
2018-09-02 12:00:00 24.1 8 Sudeste 14 Este 0 -- -- 57
2018-09-02 11:00:00 22 5 Este 10 Este 0 -- -- 71
2018-09-02 10:00:00 18.5 4 Sudeste 9 Este 0 -- -- 85
2018-09-02 09:00:00 15.5 2 Norte 10 Oeste 0 -- -- 96
2018-09-02 08:00:00 12.9 5 Oeste 9 Oeste 0 -- -- 85
2018-09-02 07:00:00 13.2 3 Norte 5 Nordeste 0 -- -- 82
2018-09-02 06:00:00 13.5 3 Nordeste 13 Sudoeste 0 -- -- 80
2018-09-02 05:00:00 14.2 12 Sudoeste 14 Sudoeste 0 -- -- 79
2018-09-02 04:00:00 14.7 3 Noroeste 9 Oeste 0 -- -- 72
2018-09-02 03:00:00 15.8 3 Norte 11 Sudoeste 0 -- -- 66
2018-09-02 02:00:00 16 5 Sur 9 Sudeste 0 -- -- 65
2018-09-02 01:00:00 16.9 5 Sudeste 10 Sudeste 0 -- -- 62
2018-09-02 00:00:00 18.6 8 Sudeste 10 Sudeste 0 -- -- 56
2018-09-01 23:00:00 19.8 6 Sur 21 Este 0 -- -- 54
2018-09-01 22:00:00 20.8 9 Este 18 Este 0 -- -- 50
2018-09-01 21:00:00 22.4 10 Este 19 Nordeste 0 -- -- 47
2018-09-01 20:00:00 26 13 Este 26 Nordeste 0 -- -- 38
2018-09-01 19:00:00 27.5 14 Nordeste 24 Nordeste 0 -- -- 35
2018-09-01 18:00:00 27.9 15 Este 28 Este 0 -- -- 36
2018-09-01 17:00:00 28.5 10 Nordeste 21 Nordeste 0 -- -- 37
2018-09-01 16:00:00 27.8 8 Norte 16 Norte 0 -- -- 37
2018-09-01 15:00:00 27 7 Norte 19 Noroeste 0 -- -- 41
2018-09-01 14:00:00 25.9 5 Norte 17 Nordeste 0 -- -- 44
2018-09-01 13:00:00 24.3 7 Nordeste 17 Nordeste 0 -- -- 49
2018-09-01 12:00:00 22.7 9 Este 20 Nordeste 0 -- -- 54
2018-09-01 11:00:00 20.6 5 Sudeste 9 Este 0 -- -- 59
2018-09-01 10:00:00 17.5 4 Nordeste 6 Nordeste 0 -- -- 77
2018-09-01 09:00:00 14.9 2 Nordeste 3 Nordeste 0 -- -- 86
2018-09-01 08:00:00 11.6 3 Oeste 6 Oeste 0 -- -- 92
2018-09-01 07:00:00 11.5 3 Sudoeste 9 Oeste 0 -- -- 91
2018-09-01 06:00:00 12.3 3 Oeste 9 Sudoeste 0 -- -- 90
2018-09-01 05:00:00 12.6 4 Sudoeste 8 Oeste 0 -- -- 89
2018-09-01 04:00:00 13.4 0 Calma 4 Sudeste 0 -- -- 86
2018-09-01 03:00:00 14.1 5 Sudeste 14 Nordeste 0 -- -- 85
2018-09-01 02:00:00 14.8 6 Este 17 Este 0 -- -- 82
2018-09-01 01:00:00 16.1 9 Este 15 Sudeste 0 -- -- 76
2018-09-01 00:00:00 17 9 Este 21 Sudeste 0 -- -- 73
2018-08-31 23:00:00 17.9 14 Este 21 Este 0 -- -- 69
2018-08-31 22:00:00 19 12 Este 23 Nordeste 0 -- -- 62
2018-08-31 21:00:00 20.7 13 Este 26 Nordeste 0 -- -- 54
2018-08-31 20:00:00 23.6 17 Este 28 Este 0 -- -- 45
2018-08-31 19:00:00 25.3 15 Este 27 Nordeste 0 -- -- 42
2018-08-31 18:00:00 25.8 18 Nordeste 29 Nordeste 0 -- -- 42
2018-08-31 17:00:00 26.5 16 Nordeste 30 Nordeste 0 -- -- 42
2018-08-31 16:00:00 26.4 16 Nordeste 28 Nordeste 0 -- -- 47
2018-08-31 15:00:00 26.1 13 Nordeste 27 Nordeste 0 -- -- 52
2018-08-31 14:00:00 25.4 9 Nordeste 18 Nordeste 0 -- -- 53
2018-08-31 13:00:00 23.5 6 Norte 22 Nordeste 0 -- -- 68
2018-08-31 12:00:00 21.7 5 Este 10 Este 0 -- -- 74
2018-08-31 11:00:00 19 5 Sur 12 Sur 0 -- -- 84
2018-08-31 10:00:00 16.9 8 Sur 12 Sur 0 -- -- 91
2018-08-31 09:00:00 15.3 4 Oeste 6 Sudoeste 0 -- -- 86
2018-08-31 08:00:00 13.4 0 Calma 4 Nordeste 0 -- -- 88
2018-08-31 07:00:00 13.9 2 Sudeste 12 Este 0 -- -- 85
2018-08-31 06:00:00 14.7 8 Este 13 Este 0 -- -- 83
2018-08-31 05:00:00 14.7 10 Este 14 Este 0 -- -- 83
2018-08-31 04:00:00 14.9 8 Este 15 Este 0 -- -- 82
2018-08-31 03:00:00 15.6 12 Este 17 Este 0 -- -- 82
2018-08-31 02:00:00 15.9 10 Este 24 Este 0 -- -- 81
2018-08-31 01:00:00 16.9 13 Este 23 Este 0 -- -- 77
2018-08-31 00:00:00 18 12 Este 22 Este 0 -- -- 73
2018-08-30 23:00:00 19.1 16 Este 28 Este 0 -- -- 69
2018-08-30 22:00:00 20.4 16 Este 27 Este 0 -- -- 71
2018-08-30 21:00:00 20.8 12 Este 18 Este 0 -- -- 75
2018-08-30 20:00:00 23.3 9 Este 21 Sudeste 0 -- -- 63
2018-08-30 19:00:00 24 14 Sudeste 26 Sudeste 0 -- -- 58
2018-08-30 18:00:00 23.3 21 Sudeste 33 Este 0 -- -- 66
2018-08-30 17:00:00 21.1 21 Nordeste 40 Norte 0.2 -- -- 74
2018-08-30 16:00:00 26.1 19 Sur 28 Sudoeste 0 -- -- 49
2018-08-30 15:00:00 27.5 9 Sudeste 16 Este 0 -- -- 44
2018-08-30 14:00:00 26.2 6 Norte 14 Oeste 0 -- -- 48
2018-08-30 13:00:00 24.5 4 Sudeste 17 Sur 0 -- -- 52
2018-08-30 12:00:00 22.4 8 Sudeste 19 Sudeste 0 -- -- 62
2018-08-30 11:00:00 20.6 7 Sur 13 Sudeste 0 -- -- 68
2018-08-30 10:00:00 17.6 7 Sudeste 10 Sudeste 0 -- -- 77
2018-08-30 09:00:00 15.2 3 Norte 5 Norte 0 -- -- 88
2018-08-30 08:00:00 12.5 0 Calma 4 Sur 0 -- -- 93
2018-08-30 07:00:00 13.1 4 Este 7 Nordeste 0 -- -- 91
2018-08-30 06:00:00 13.9 5 Sudeste 14 Este 0 -- -- 89
2018-08-30 05:00:00 14.4 5 Nordeste 10 Este 0 -- -- 88
2018-08-30 04:00:00 15 7 Este 16 Este 0 -- -- 87
2018-08-30 03:00:00 15.4 9 Sudeste 18 Este 0 -- -- 86
2018-08-30 02:00:00 15.8 2 Sur 28 Este 0 -- -- 83
2018-08-30 01:00:00 16.6 16 Este 32 Este 0 -- -- 80
2018-08-30 00:00:00 17.5 20 Este 32 Este 0 -- -- 75
2018-08-29 23:00:00 18.5 19 Este 33 Este 0 -- -- 70
2018-08-29 22:00:00 19.6 13 Este 30 Nordeste 0 -- -- 67
2018-08-29 21:00:00 21.1 19 Este 31 Este 0 -- -- 62
2018-08-29 20:00:00 22.9 18 Nordeste 36 Este 0 -- -- 54
2018-08-29 19:00:00 25.1 23 Este 37 Nordeste 0 -- -- 48
2018-08-29 18:00:00 26 21 Este 32 Este 0 -- -- 46
2018-08-29 17:00:00 26.5 17 Nordeste 27 Nordeste 0 -- -- 43
2018-08-29 16:00:00 25.9 18 Este 26 Este 0 -- -- 47
2018-08-29 15:00:00 25.4 15 Nordeste 26 Este 0 -- -- 49
2018-08-29 14:00:00 25.5 17 Este 26 Este 0 -- -- 48
2018-08-29 13:00:00 24.4 11 Nordeste 19 Nordeste 0 -- -- 56
2018-08-29 12:00:00 23.9 9 Nordeste 18 Nordeste 0 -- -- 57
2018-08-29 11:00:00 22 5 Este 9 Este 0 -- -- 65
2018-08-29 10:00:00 18.8 4 Sudoeste 6 Norte 0 -- -- 78
2018-08-29 09:00:00 16.2 2 Este 8 Noroeste 0 -- -- 90
2018-08-29 08:00:00 13.4 6 Oeste -- -- -- -- -- 92
2018-08-29 07:00:00 14 5 Oeste 12 Norte 0 -- -- 91
2018-08-29 06:00:00 14.3 3 Noroeste 7 Oeste 0 -- -- 90
2018-08-29 05:00:00 14.9 4 Noroeste 9 Sur 0 -- -- 88
2018-08-29 04:00:00 15.8 7 Sudeste 15 Oeste 0 -- -- 84
2018-08-29 03:00:00 16.5 8 Norte 15 Noroeste 0 -- -- 77
2018-08-29 02:00:00 16.8 9 Este 41 Sur 0 -- -- 70
2018-08-29 01:00:00 17.3 37 Sur 49 Sur 0 -- -- 67
2018-08-29 00:00:00 17.9 14 Sur 52 Sur 0 -- -- 69
2018-08-28 23:00:00 18.2 15 Sudoeste 55 Oeste 3.2 -- -- 82
2018-08-28 22:00:00 19.3 9 Oeste 59 Sur 0.2 -- -- 78
2018-08-28 21:00:00 23.6 35 Sudoeste 73 Sudoeste 0 -- -- 44
2018-08-28 20:00:00 21.8 19 Sudeste 46 Noroeste 0.6 -- -- 52
2018-08-28 19:00:00 29.6 17 Oeste 33 Sudoeste 0 -- -- 33
2018-08-28 18:00:00 31.7 17 Sudoeste 40 Oeste 0 -- -- 30
2018-08-28 17:00:00 32.2 23 Oeste 40 Oeste 0 -- -- 29
2018-08-28 16:00:00 31.9 21 Oeste 41 Sudoeste 0 -- -- 28
2018-08-28 15:00:00 31.8 21 Sudoeste 42 Sudoeste 0 -- -- 30
2018-08-28 14:00:00 29.3 22 Oeste 35 Oeste 0 -- -- 34
2018-08-28 13:00:00 28.3 13 Oeste 25 Oeste 0 -- -- 36
2018-08-28 12:00:00 26 12 Sur 19 Sur 0 -- -- 52
2018-08-28 11:00:00 23.7 15 Sur 25 Sur 0 -- -- 65
2018-08-28 10:00:00 20.9 20 Sur 25 Sur 0 -- -- 79
2018-08-28 09:00:00 19.2 7 Sudoeste 23 Sur 0 -- -- 86
2018-08-28 08:00:00 18.5 22 Sur 32 Sur 0 -- -- 89
2018-08-28 07:00:00 18.1 8 Sur 18 Sur 0 -- -- 91
2018-08-28 06:00:00 18.9 7 Este 24 Sudeste 0 -- -- 88
2018-08-28 05:00:00 19.4 6 Nordeste 21 Sur 0 -- -- 87
2018-08-28 04:00:00 19.7 12 Sur 30 Sur 0 -- -- 86
2018-08-28 03:00:00 20.4 24 Sur 37 Sur 0 -- -- 82
2018-08-28 02:00:00 21.3 26 Sur 36 Sur 0 -- -- 77
2018-08-28 01:00:00 20.7 10 Sur 15 Sur 0 -- -- 71
2018-08-28 00:00:00 21.4 9 Sudeste 13 Sur 0 -- -- 54
2018-08-27 23:00:00 22.3 3 Sudeste 14 Sudeste 0 -- -- 51
2018-08-27 22:00:00 23.8 5 Nordeste 15 Este 0 -- -- 48
2018-08-27 21:00:00 25.1 12 Este 24 Este 0 -- -- 44
2018-08-27 20:00:00 28.8 18 Nordeste 39 Nordeste 0 -- -- 37
2018-08-27 19:00:00 32.5 5 Sur 14 Sudoeste 0 -- -- 26
2018-08-27 18:00:00 32.7 5 Sudoeste 14 Sudeste 0 -- -- 26
2018-08-27 17:00:00 32.2 6 Este 17 Norte 0 -- -- 26
2018-08-27 16:00:00 31.6 10 Norte 24 Este 0 -- -- 27
2018-08-27 15:00:00 30.6 8 Sudoeste 17 Oeste 0 -- -- 29
2018-08-27 14:00:00 29.6 9 Noroeste 14 Norte 0 -- -- 30
2018-08-27 13:00:00 28.3 4 Sur 12 Sur 0 -- -- 34
2018-08-27 12:00:00 25.4 5 Sudeste 10 Sudeste 0 -- -- 44
2018-08-27 11:00:00 22 3 Sur 5 Sur 0 -- -- 63
2018-08-27 10:00:00 18.6 2 Sudeste 5 Este 0 -- -- 70
2018-08-27 09:00:00 15.2 2 Nordeste 7 Oeste 0 -- -- 83
2018-08-27 08:00:00 11.5 7 Sudoeste 8 Sudoeste 0 -- -- 91
2018-08-27 07:00:00 12.4 3 Norte 6 Oeste 0 -- -- 86
2018-08-27 06:00:00 12.3 2 Noroeste 7 Oeste 0 -- -- 86
2018-08-27 05:00:00 12.8 0 Calma 8 Sudoeste 0 -- -- 85
2018-08-27 04:00:00 13.5 5 Sudoeste 7 Sudoeste 0 -- -- 83
2018-08-27 03:00:00 13.8 3 Sudoeste 5 Sur 0 -- -- 81
2018-08-27 02:00:00 15 4 Este 8 Sur 0 -- -- 75
2018-08-27 01:00:00 15.3 8 Sudoeste 10 Sudoeste 0 -- -- 77
2018-08-27 00:00:00 17.7 0 Calma 14 Este 0 -- -- 67
2018-08-26 23:00:00 19.2 10 Este 16 Este 0 -- -- 59
2018-08-26 22:00:00 20.8 12 Este 16 Este 0 -- -- 54
2018-08-26 21:00:00 23.6 6 Noroeste 15 Nordeste 0 -- -- 49
2018-08-26 20:00:00 27.3 6 Norte 19 Norte 0 -- -- 38
2018-08-26 19:00:00 28.5 13 Norte 27 Norte 0 -- -- 34
2018-08-26 18:00:00 29.1 10 Norte 30 Noroeste 0 -- -- 34
2018-08-26 17:00:00 29 15 Noroeste 34 Noroeste 0 -- -- 33
2018-08-26 16:00:00 28.3 12 Noroeste 25 Oeste 0 -- -- 34
2018-08-26 15:00:00 27.1 11 Noroeste 28 Noroeste 0 -- -- 39
2018-08-26 14:00:00 25.5 11 Noroeste 22 Oeste 0 -- -- 43
2018-08-26 13:00:00 22.5 7 Noroeste 13 Oeste 0 -- -- 52
2018-08-26 12:00:00 19.7 4 Sudoeste 9 Sur 0 -- -- 61
2018-08-26 11:00:00 16.9 3 Nordeste 8 Nordeste 0 -- -- 68
2018-08-26 10:00:00 13.8 0 Calma 4 Sur 0 -- -- 76
2018-08-26 09:00:00 11.5 0 Calma 5 Nordeste 0 -- -- 87
2018-08-26 08:00:00 8.4 0 Calma 6 Sudoeste 0 -- -- 93
2018-08-26 07:00:00 8.6 4 Sudoeste 5 Sudoeste 0 -- -- 91
2018-08-26 06:00:00 9.3 2 Este 8 Este 0 -- -- 88
2018-08-26 05:00:00 10 7 Este 11 Sudeste 0 -- -- 87
2018-08-26 04:00:00 10.5 8 Este 19 Este 0 -- -- 84
2018-08-26 03:00:00 10.8 7 Este 16 Este 0 -- -- 83
2018-08-26 02:00:00 11.5 5 Este 11 Este 0 -- -- 80
2018-08-26 01:00:00 12.2 6 Este 24 Nordeste 0 -- -- 77
2018-08-26 00:00:00 13.1 17 Este 28 Este 0 -- -- 74
2018-08-25 23:00:00 14.1 18 Este 32 Este 0 -- -- 71
2018-08-25 22:00:00 15.3 19 Este 32 Este 0 -- -- 67
2018-08-25 21:00:00 16.7 23 Este 37 Este 0 -- -- 63
2018-08-25 20:00:00 19.6 24 Nordeste 35 Este 0 -- -- 52
2018-08-25 19:00:00 21.3 25 Nordeste 38 Este 0 -- -- 48
2018-08-25 18:00:00 22.6 23 Este 37 Nordeste 0 -- -- 45
2018-08-25 17:00:00 22.9 22 Este 35 Este 0 -- -- 45
2018-08-25 16:00:00 25.1 18 Nordeste 30 Este 0 -- -- 41
2018-08-25 15:00:00 24.9 15 Nordeste 26 Este 0 -- -- 43
2018-08-25 14:00:00 23.8 5 Este 17 Este 0 -- -- 43
2018-08-25 13:00:00 21.8 6 Norte 11 Norte 0 -- -- 45
2018-08-25 12:00:00 19.4 4 Este 10 Este 0 -- -- 62
2018-08-25 11:00:00 17.1 5 Sudeste 20 Nordeste 0 -- -- 72
2018-08-25 10:00:00 14.2 8 Este 14 Este 0 -- -- 81
2018-08-25 09:00:00 11.7 7 Este 12 Este 0 -- -- 94
2018-08-25 08:00:00 9.4 2 Oeste 9 Oeste 0 -- -- 96
2018-08-25 07:00:00 9.2 3 Sudoeste 6 Sudoeste 0 -- -- 95
2018-08-25 06:00:00 9.7 2 Nordeste 7 Nordeste 0 -- -- 93
2018-08-25 05:00:00 10.3 5 Oeste 9 Sudoeste 0 -- -- 93
2018-08-25 04:00:00 11.3 4 Sudeste 9 Sudeste 0 -- -- 89
2018-08-25 03:00:00 11.8 7 Este 9 Este 0 -- -- 89
2018-08-25 02:00:00 12.5 6 Sur 14 Este 0 -- -- 88
2018-08-25 01:00:00 13.2 6 Sudeste 11 Este 0 -- -- 84
2018-08-25 00:00:00 13.9 5 Sudeste 14 Este 0 -- -- 81
2018-08-24 23:00:00 15.1 4 Este 27 Nordeste 0 -- -- 77
2018-08-24 22:00:00 16.4 19 Este 32 Este 0 -- -- 75
2018-08-24 21:00:00 18.2 19 Este 36 Nordeste 0 -- -- 70
2018-08-24 20:00:00 20.5 22 Nordeste 38 Este 0 -- -- 62
2018-08-24 19:00:00 23.3 27 Este 35 Este 0 -- -- 51
2018-08-24 18:00:00 26.5 19 Norte 29 Norte 0 -- -- 31
2018-08-24 17:00:00 26.4 15 Norte 32 Norte 0 -- -- 33
2018-08-24 16:00:00 26.3 10 Norte 27 Norte 0 -- -- 37
2018-08-24 15:00:00 25.1 10 Norte 21 Norte 0 -- -- 45
2018-08-24 14:00:00 23.5 8 Nordeste 16 Nordeste 0 -- -- 53
2018-08-24 13:00:00 21.7 8 Norte 23 Nordeste 0 -- -- 59
2018-08-24 12:00:00 19.9 7 Este 14 Este 0 -- -- 68
2018-08-24 11:00:00 18.1 5 Sudeste 14 Nordeste 0 -- -- 79
2018-08-24 10:00:00 16 10 Este 15 Nordeste 0 -- -- 88
2018-08-24 09:00:00 13.9 3 Sudoeste 6 Sudoeste 0 -- -- 97
2018-08-24 08:00:00 10.9 4 Sudoeste 5 Sudoeste 0 -- -- 96
2018-08-24 07:00:00 11 0 Calma 3 Este 0 -- -- 95
2018-08-24 06:00:00 11.6 0 Calma 8 Sudoeste 0 -- -- 95
2018-08-24 05:00:00 11.8 3 Sudoeste 10 Oeste 0 -- -- 93
2018-08-24 04:00:00 12.5 6 Oeste 8 Oeste 0 -- -- 95
2018-08-24 03:00:00 12.8 4 Sudeste 8 Sudoeste 0 -- -- 93
2018-08-24 02:00:00 13.3 4 Oeste 8 Oeste 0 -- -- 92
2018-08-24 01:00:00 13.8 5 Oeste 12 Sudoeste 0 -- -- 90
2018-08-24 00:00:00 14.3 4 Oeste 11 Oeste 0 -- -- 87